createdAt,value
2022-11-10T00:01:03.036Z,62.40
2022-11-10T00:03:49.914Z,65.43
2022-11-10T00:06:35.928Z,61.55
2022-11-10T00:09:22.355Z,59.97
2022-11-10T00:12:08.366Z,59.88
2022-11-10T00:15:12.789Z,58.25
2022-11-10T00:18:02.392Z,56.70
2022-11-10T00:20:48.157Z,62.85
2022-11-10T00:23:34.225Z,59.47
2022-11-10T00:26:20.534Z,62.83
2022-11-10T00:29:06.309Z,55.90
2022-11-10T00:31:53.084Z,55.50
2022-11-10T00:34:39.207Z,56.75
2022-11-10T00:37:26.179Z,60.20
2022-11-10T00:40:14.378Z,63.30
2022-11-10T00:43:00.505Z,65.88
2022-11-10T00:45:47.249Z,62.47
2022-11-10T00:48:32.892Z,63.50
2022-11-10T00:51:27.623Z,61.35
2022-11-10T00:54:13.310Z,60.97
2022-11-10T00:56:59.282Z,54.83
2022-11-10T00:59:45.013Z,62.17
2022-11-10T01:02:31.083Z,56.03
2022-11-10T01:05:17.097Z,61.03
2022-11-10T01:08:02.905Z,66.15
2022-11-10T01:10:48.750Z,54.05
2022-11-10T01:13:35.567Z,63.75
2022-11-10T01:16:24.007Z,57.97
2022-11-10T01:19:09.944Z,60.00
2022-11-10T01:21:55.793Z,69.50
2022-11-10T01:24:41.642Z,69.05
2022-11-10T01:27:27.708Z,65.70
2022-11-10T01:30:13.590Z,77.18
2022-11-10T01:32:59.573Z,77.60
2022-11-10T01:35:46.364Z,75.65
2022-11-10T01:38:35.199Z,77.55
2022-11-10T01:41:21.374Z,77.88
2022-11-10T01:44:16.171Z,71.63
2022-11-10T01:47:01.804Z,68.20
2022-11-10T01:49:47.645Z,65.03
2022-11-10T01:52:33.621Z,66.60
2022-11-10T01:55:20.409Z,66.45
2022-11-10T01:58:06.437Z,71.25
2022-11-10T02:00:53.338Z,67.82
2022-11-10T02:03:47.415Z,71.45
2022-11-10T02:06:40.670Z,65.03
2022-11-10T02:09:26.848Z,63.58
2022-11-10T02:12:13.567Z,66.47
2022-11-10T02:15:02.089Z,66.07
2022-11-10T02:17:49.049Z,66.03
2022-11-10T02:20:35.438Z,62.45
2022-11-10T02:23:30.372Z,67.72
2022-11-10T02:26:20.543Z,70.25
2022-11-10T02:29:06.475Z,67.00
2022-11-10T02:31:52.648Z,65.57
2022-11-10T02:34:38.345Z,66.18
2022-11-10T02:37:24.334Z,69.13
2022-11-10T02:40:10.606Z,74.10
2022-11-10T02:42:56.295Z,74.47
2022-11-10T02:45:45.174Z,75.88
2022-11-10T02:48:30.889Z,75.28
2022-11-10T02:51:16.996Z,73.82
2022-11-10T02:54:03.163Z,75.55
2022-11-10T02:56:48.722Z,73.03
2022-11-10T02:59:34.521Z,75.22
2022-11-10T03:02:20.476Z,74.95
2022-11-10T03:05:06.878Z,71.90
2022-11-10T03:07:57.196Z,73.57
2022-11-10T03:10:42.891Z,66.93
2022-11-10T03:13:45.369Z,70.47
2022-11-10T03:16:37.015Z,71.35
2022-11-10T03:19:22.795Z,74.38
2022-11-10T03:22:08.803Z,68.03
2022-11-10T03:24:54.668Z,73.18
2022-11-10T03:27:40.844Z,63.72
2022-11-10T03:30:26.948Z,73.75
2022-11-10T03:33:12.664Z,71.93
2022-11-10T03:35:58.801Z,76.50
2022-11-10T03:38:44.841Z,66.00
2022-11-10T03:41:31.164Z,64.03
2022-11-10T03:44:17.145Z,62.25
2022-11-10T03:47:04.011Z,63.75
2022-11-10T03:49:49.890Z,68.97
2022-11-10T03:52:38.298Z,62.58
2022-11-10T03:55:24.190Z,67.50
2022-11-10T03:58:10.171Z,65.25
2022-11-10T04:00:56.803Z,64.78
2022-11-10T04:03:43.660Z,60.47
2022-11-10T04:06:49.187Z,64.43
2022-11-10T04:09:35.039Z,65.28
2022-11-10T04:12:39.382Z,66.25
2022-11-10T04:15:43.451Z,64.65
2022-11-10T04:18:29.790Z,69.18
2022-11-10T04:21:15.924Z,66.20
2022-11-10T04:24:01.613Z,66.85
2022-11-10T04:26:48.956Z,64.68
2022-11-10T04:29:34.737Z,68.95
2022-11-10T04:32:20.695Z,69.90
2022-11-10T04:35:06.930Z,74.97
2022-11-10T04:37:52.801Z,68.07
2022-11-10T04:40:38.587Z,69.65
2022-11-10T04:43:24.819Z,65.70
2022-11-10T04:46:35.475Z,64.57
2022-11-10T04:49:21.484Z,67.07
2022-11-10T04:52:07.561Z,66.03
2022-11-10T04:54:53.560Z,64.90
2022-11-10T04:57:39.500Z,62.92
2022-11-10T05:00:25.852Z,65.68
2022-11-10T05:03:12.502Z,61.60
2022-11-10T05:05:58.283Z,60.58
2022-11-10T05:08:44.604Z,57.58
2022-11-10T05:11:30.634Z,62.45
2022-11-10T05:14:16.416Z,57.83
2022-11-10T05:17:02.255Z,61.25
2022-11-10T05:19:48.335Z,59.25
2022-11-10T05:22:34.214Z,63.13
2022-11-10T05:25:20.310Z,66.53
2022-11-10T05:28:08.445Z,62.60
2022-11-10T05:30:54.398Z,60.85
2022-11-10T05:33:41.248Z,73.63
2022-11-10T05:36:27.869Z,68.60
2022-11-10T05:39:13.786Z,72.60
2022-11-10T05:41:59.876Z,66.60
2022-11-10T05:44:45.909Z,68.30
2022-11-10T05:47:32.659Z,71.45
2022-11-10T05:50:20.532Z,75.88
2022-11-10T05:53:06.434Z,79.72
2022-11-10T05:55:52.294Z,78.00
2022-11-10T05:58:38.323Z,88.68
2022-11-10T06:01:24.205Z,86.70
2022-11-10T06:04:09.988Z,90.07
2022-11-10T06:06:55.951Z,89.82
2022-11-10T06:09:43.083Z,89.00
2022-11-10T06:12:30.487Z,88.47
2022-11-10T06:15:17.015Z,101.38
2022-11-10T06:18:02.753Z,100.22
2022-11-10T06:20:48.884Z,113.95
2022-11-10T06:23:34.554Z,117.40
2022-11-10T06:26:20.556Z,116.85
2022-11-10T06:29:06.704Z,105.53
2022-11-10T06:31:53.087Z,116.43
2022-11-10T06:34:39.153Z,124.85
2022-11-10T06:37:25.073Z,119.45
2022-11-10T06:40:14.113Z,112.15
2022-11-10T06:43:01.675Z,113.13
2022-11-10T06:45:48.580Z,108.82
2022-11-10T06:48:34.577Z,107.07
2022-11-10T06:51:20.448Z,102.55
2022-11-10T06:54:06.570Z,92.25
2022-11-10T06:56:52.315Z,90.63
2022-11-10T06:59:38.141Z,82.03
2022-11-10T07:02:24.126Z,98.30
2022-11-10T07:05:09.996Z,89.25
2022-11-10T07:07:56.113Z,85.35
2022-11-10T07:11:00.196Z,77.70
2022-11-10T07:13:46.037Z,78.38
2022-11-10T07:16:32.109Z,76.50
2022-11-10T07:19:18.010Z,66.10
2022-11-10T07:22:09.660Z,62.83
2022-11-10T07:24:56.772Z,57.88
2022-11-10T07:27:42.636Z,58.42
2022-11-10T07:30:29.970Z,58.00
2022-11-10T07:33:16.086Z,56.67
2022-11-10T07:36:03.680Z,62.63
2022-11-10T07:38:49.498Z,56.53
2022-11-10T07:41:35.469Z,58.40
2022-11-10T07:44:21.529Z,63.20
2022-11-10T07:47:07.616Z,54.53
2022-11-10T07:49:53.306Z,59.00
2022-11-10T07:52:39.451Z,56.33
2022-11-10T07:55:25.080Z,63.53
2022-11-10T07:58:12.671Z,70.53
2022-11-10T08:00:58.480Z,60.20
2022-11-10T08:03:44.471Z,63.83
2022-11-10T08:06:35.898Z,64.72
2022-11-10T08:09:22.140Z,68.43
2022-11-10T08:12:08.118Z,67.45
2022-11-10T08:14:54.208Z,65.88
2022-11-10T08:17:40.521Z,71.40
2022-11-10T08:20:26.200Z,74.38
2022-11-10T08:23:12.441Z,68.80
2022-11-10T08:25:59.467Z,66.25
2022-11-10T08:28:45.533Z,63.40
2022-11-10T08:31:33.371Z,69.22
2022-11-10T08:34:19.485Z,62.33
2022-11-10T08:37:05.129Z,58.20
2022-11-10T08:39:51.553Z,52.10
2022-11-10T08:42:37.518Z,59.63
2022-11-10T08:45:23.398Z,57.90
2022-11-10T08:48:13.628Z,48.15
2022-11-10T08:51:00.569Z,51.38
2022-11-10T08:53:46.156Z,48.03
2022-11-10T08:56:32.046Z,46.90
2022-11-10T08:59:17.926Z,45.13
2022-11-10T09:02:03.878Z,52.00
2022-11-10T09:04:49.898Z,45.55
2022-11-10T09:07:53.990Z,50.60
2022-11-10T09:10:42.917Z,49.15
2022-11-10T09:13:30.435Z,49.45
2022-11-10T09:16:16.950Z,51.17
2022-11-10T09:19:03.006Z,54.38
2022-11-10T09:21:48.928Z,58.63
2022-11-10T09:24:34.948Z,65.15
2022-11-10T09:27:20.897Z,71.03
2022-11-10T09:30:10.640Z,69.35
2022-11-10T09:33:01.097Z,64.50
2022-11-10T09:35:47.212Z,66.35
2022-11-10T09:38:33.980Z,66.35
2022-11-10T09:41:20.407Z,60.88
2022-11-10T09:44:30.948Z,66.38
2022-11-10T09:47:55.720Z,59.95
2022-11-10T09:50:40.697Z,60.85
2022-11-10T09:53:56.829Z,60.45
2022-11-10T09:56:42.580Z,59.45
2022-11-10T09:59:32.450Z,56.83
2022-11-10T10:02:31.384Z,57.20
2022-11-10T10:05:23.209Z,50.78
2022-11-10T10:08:23.962Z,52.15
2022-11-10T10:11:37.951Z,46.10
2022-11-10T10:14:43.329Z,45.08
2022-11-10T10:17:56.556Z,47.65
2022-11-10T10:24:02.647Z,43.53
2022-11-10T10:26:53.984Z,44.42
2022-11-10T10:29:44.376Z,46.15
2022-11-10T10:32:30.096Z,43.13
2022-11-10T10:35:18.108Z,39.92
2022-11-10T10:38:06.230Z,42.83
2022-11-10T10:40:53.285Z,54.72
2022-11-10T10:43:41.842Z,41.28
2022-11-10T10:46:32.865Z,42.08
2022-11-10T10:49:31.295Z,48.00
2022-11-10T10:52:24.910Z,48.88
2022-11-10T10:55:13.404Z,43.65
2022-11-10T10:58:21.069Z,43.30
2022-11-10T11:01:16.651Z,45.63
2022-11-10T11:04:25.832Z,47.45
2022-11-10T11:07:24.543Z,48.30
2022-11-10T11:10:22.386Z,43.75
2022-11-10T11:13:23.547Z,50.55
2022-11-10T11:16:12.379Z,42.00
2022-11-10T11:18:58.896Z,43.25
2022-11-10T11:21:53.658Z,43.60
2022-11-10T11:24:54.442Z,44.83
2022-11-10T11:27:50.885Z,41.78
2022-11-10T11:30:42.637Z,44.33
2022-11-10T11:33:33.607Z,41.38
2022-11-10T11:36:25.476Z,43.55
2022-11-10T11:39:29.705Z,39.60
2022-11-10T11:42:38.842Z,43.45
2022-11-10T11:45:30.411Z,45.10
2022-11-10T11:48:33.185Z,39.97
2022-11-10T11:51:40.203Z,41.60
2022-11-10T11:54:43.866Z,41.30
2022-11-10T11:57:59.717Z,47.10
2022-11-10T12:01:17.880Z,46.03
2022-11-10T12:04:15.734Z,44.92
2022-11-10T12:07:01.418Z,48.22
2022-11-10T12:09:56.243Z,46.60
2022-11-10T12:13:11.519Z,50.13
2022-11-10T12:16:12.588Z,52.70
2022-11-10T12:19:07.258Z,45.50
2022-11-10T12:22:28.940Z,40.15
2022-11-10T12:25:34.288Z,49.72
2022-11-10T12:28:43.776Z,50.90
2022-11-10T12:31:34.316Z,56.85
2022-11-10T12:34:32.079Z,54.35
2022-11-10T12:37:28.006Z,59.78
2022-11-10T12:40:24.430Z,58.08
2022-11-10T12:43:20.661Z,59.28
2022-11-10T12:46:12.107Z,60.80
2022-11-10T12:49:18.760Z,64.22
2022-11-10T12:52:18.183Z,57.88
2022-11-10T12:55:04.816Z,62.92
2022-11-10T12:57:51.157Z,59.92
2022-11-10T13:01:03.939Z,53.90
2022-11-10T13:06:51.904Z,51.38
2022-11-10T13:09:43.726Z,55.63
2022-11-10T13:12:29.488Z,52.38
2022-11-10T13:15:37.211Z,50.67
2022-11-10T13:18:30.317Z,49.78
2022-11-10T13:21:15.999Z,48.60
2022-11-10T13:24:02.640Z,48.70
2022-11-10T13:26:52.861Z,51.40
2022-11-10T13:29:47.945Z,55.60
2022-11-10T13:32:35.255Z,56.70
2022-11-10T13:35:30.690Z,55.97
2022-11-10T13:38:41.355Z,58.33
2022-11-10T13:41:27.445Z,51.47
2022-11-10T13:44:27.492Z,53.10
2022-11-10T13:47:19.355Z,60.80
2022-11-10T13:50:23.982Z,52.25
2022-11-10T13:53:44.914Z,52.90
2022-11-10T13:56:46.072Z,54.78
2022-11-10T13:59:42.722Z,56.15
2022-11-10T14:02:34.518Z,57.08
2022-11-10T14:05:30.153Z,59.15
2022-11-10T14:08:22.714Z,63.08
2022-11-10T14:11:48.672Z,54.85
2022-11-10T14:14:49.077Z,56.20
2022-11-10T14:17:41.282Z,55.60
2022-11-10T14:20:37.906Z,57.47
2022-11-10T14:23:29.592Z,59.53
2022-11-10T14:26:27.953Z,56.20
2022-11-10T14:29:35.943Z,56.30
2022-11-10T14:32:24.762Z,53.92
2022-11-10T14:35:25.779Z,54.75
2022-11-10T14:38:24.043Z,55.90
2022-11-10T14:41:19.323Z,55.10
2022-11-10T14:44:08.119Z,56.95
2022-11-10T14:46:54.829Z,62.72
2022-11-10T14:49:40.893Z,60.47
2022-11-10T14:52:27.523Z,57.33
2022-11-10T14:55:35.535Z,58.28
2022-11-10T14:58:28.088Z,59.50
2022-11-10T15:01:24.584Z,59.85
2022-11-10T15:04:12.148Z,64.55
2022-11-10T15:07:00.242Z,63.78
2022-11-10T15:10:11.477Z,59.35
2022-11-10T15:13:12.482Z,63.22
2022-11-10T15:16:25.585Z,62.13
2022-11-10T15:22:21.960Z,62.83
2022-11-10T15:25:16.592Z,66.60
2022-11-10T15:28:15.393Z,64.68
2022-11-10T15:31:07.841Z,70.03
2022-11-10T15:34:05.533Z,77.63
2022-11-10T15:37:12.867Z,68.65
2022-11-10T15:40:40.929Z,72.10
2022-11-10T15:43:27.980Z,75.35
2022-11-10T15:46:19.487Z,83.13
2022-11-10T15:49:26.392Z,82.82
2022-11-10T15:52:16.804Z,80.65
2022-11-10T15:55:05.907Z,71.63
2022-11-10T15:57:51.892Z,79.53
2022-11-10T16:00:38.672Z,90.63
2022-11-10T16:03:24.552Z,94.57
2022-11-10T16:06:15.056Z,98.65
2022-11-10T16:09:01.141Z,103.35
2022-11-10T16:11:47.169Z,94.10
2022-11-10T16:14:33.130Z,108.43
2022-11-10T16:17:19.566Z,98.82
2022-11-10T16:20:14.916Z,98.00
2022-11-10T16:23:00.944Z,95.53
2022-11-10T16:25:49.049Z,96.40
2022-11-10T16:28:35.827Z,100.18
2022-11-10T16:31:23.350Z,98.68
2022-11-10T16:34:15.152Z,99.55
2022-11-10T16:37:02.081Z,101.05
2022-11-10T16:39:48.126Z,105.80
2022-11-10T16:42:34.067Z,118.35
2022-11-10T16:45:29.983Z,110.40
2022-11-10T16:48:22.316Z,96.60
2022-11-10T16:51:08.317Z,104.95
2022-11-10T16:53:54.161Z,104.00
2022-11-10T16:56:42.386Z,104.88
2022-11-10T16:59:28.384Z,104.25
2022-11-10T17:02:35.670Z,104.47
2022-11-10T17:05:21.775Z,106.25
2022-11-10T17:08:10.470Z,108.57
2022-11-10T17:10:59.607Z,102.20
2022-11-10T17:13:45.281Z,107.10
2022-11-10T17:16:37.579Z,94.18
2022-11-10T17:19:26.421Z,101.32
2022-11-10T17:22:16.619Z,98.80
2022-11-10T17:25:03.247Z,102.45
2022-11-10T17:27:49.169Z,109.72
2022-11-10T17:30:35.198Z,105.80
2022-11-10T17:33:21.509Z,109.68
2022-11-10T17:36:22.336Z,111.00
2022-11-10T17:39:13.818Z,117.30
2022-11-10T17:42:00.424Z,115.53
2022-11-10T17:44:46.553Z,115.13
2022-11-10T17:47:32.523Z,116.03
2022-11-10T17:50:21.197Z,102.88
2022-11-10T17:53:25.901Z,110.88
2022-11-10T17:56:12.186Z,118.03
2022-11-10T17:58:59.602Z,101.88
2022-11-10T18:01:45.656Z,107.65
2022-11-10T18:04:31.748Z,107.30
2022-11-10T18:07:17.426Z,105.63
2022-11-10T18:10:03.868Z,108.07
2022-11-10T18:12:49.805Z,104.47
2022-11-10T18:15:35.811Z,110.80
2022-11-10T18:18:21.852Z,105.53
2022-11-10T18:21:07.962Z,124.28
2022-11-10T18:23:53.646Z,104.70
2022-11-10T18:26:39.498Z,106.35
2022-11-10T18:29:25.472Z,114.43
2022-11-10T18:32:11.869Z,118.50
2022-11-10T18:34:57.534Z,110.38
2022-11-10T18:37:43.648Z,109.22
2022-11-10T18:40:29.248Z,122.00
2022-11-10T18:43:14.956Z,112.75
2022-11-10T18:46:00.756Z,115.07
2022-11-10T18:48:47.650Z,124.15
2022-11-10T18:51:34.112Z,122.15
2022-11-10T18:54:20.936Z,117.57
2022-11-10T18:57:06.726Z,114.78
2022-11-10T18:59:52.758Z,117.22
2022-11-10T19:02:38.750Z,119.95
2022-11-10T19:05:25.298Z,137.05
2022-11-10T19:08:11.164Z,121.88
2022-11-10T19:10:57.544Z,130.35
2022-11-10T19:13:43.842Z,133.50
2022-11-10T19:16:30.092Z,134.63
2022-11-10T19:19:15.724Z,130.05
2022-11-10T19:22:01.743Z,114.50
2022-11-10T19:25:07.170Z,116.28
2022-11-10T19:27:53.608Z,125.63
2022-11-10T19:30:39.820Z,123.78
2022-11-10T19:33:25.773Z,120.25
2022-11-10T19:36:14.683Z,109.03
2022-11-10T19:39:01.084Z,120.07
2022-11-10T19:41:46.944Z,115.07
2022-11-10T19:44:32.889Z,120.22
2022-11-10T19:47:18.778Z,283.90
2022-11-10T19:50:05.155Z,138.10
2022-11-10T19:52:50.771Z,129.50
2022-11-10T19:55:36.861Z,121.18
2022-11-10T19:58:22.538Z,117.82
2022-11-10T20:01:10.482Z,119.07
2022-11-10T20:03:56.373Z,124.53
2022-11-10T20:06:42.446Z,134.45
2022-11-10T20:09:28.322Z,122.55
2022-11-10T20:12:14.320Z,92.55
2022-11-10T20:15:00.405Z,104.25
2022-11-10T20:17:46.240Z,104.38
2022-11-10T20:20:32.349Z,108.85
2022-11-10T20:23:18.863Z,107.47
2022-11-10T20:26:09.370Z,115.53
2022-11-10T20:28:55.326Z,108.43
2022-11-10T20:31:41.330Z,108.60
2022-11-10T20:34:27.245Z,112.63
2022-11-10T20:37:13.304Z,111.70
2022-11-10T20:39:59.445Z,112.68
2022-11-10T20:42:45.181Z,108.53
2022-11-10T20:45:30.899Z,108.15
2022-11-10T20:48:16.924Z,108.80
2022-11-10T20:51:09.464Z,106.28
2022-11-10T20:53:56.220Z,104.13
2022-11-10T20:56:41.928Z,109.18
2022-11-10T20:59:27.848Z,103.93
2022-11-10T21:02:13.897Z,109.13
2022-11-10T21:04:59.959Z,111.07
2022-11-10T21:07:45.784Z,103.10
2022-11-10T21:10:31.932Z,108.30
2022-11-10T21:13:17.964Z,108.95
2022-11-10T21:16:06.201Z,109.50
2022-11-10T21:18:55.720Z,133.32
2022-11-10T21:21:41.732Z,119.60
2022-11-10T21:24:31.329Z,116.28
2022-11-10T21:27:17.400Z,113.00
2022-11-10T21:30:05.473Z,98.28
2022-11-10T21:32:52.577Z,87.60
2022-11-10T21:35:38.505Z,97.65
2022-11-10T21:38:24.570Z,90.90
2022-11-10T21:41:10.583Z,93.18
2022-11-10T21:43:56.700Z,102.18
2022-11-10T21:46:42.911Z,100.97
2022-11-10T21:49:28.842Z,101.30
2022-11-10T21:52:14.792Z,105.70
2022-11-10T21:55:00.831Z,161.57
2022-11-10T21:57:46.690Z,136.63
2022-11-10T22:00:32.785Z,99.18
2022-11-10T22:03:19.280Z,89.90
2022-11-10T22:06:07.481Z,90.07
2022-11-10T22:08:53.301Z,92.35
2022-11-10T22:11:58.232Z,91.90
2022-11-10T22:15:02.577Z,85.35
2022-11-10T22:18:06.949Z,88.93
2022-11-10T22:20:52.893Z,84.82
2022-11-10T22:23:57.178Z,86.65
2022-11-10T22:26:43.288Z,85.00
2022-11-10T22:29:32.240Z,88.03
2022-11-10T22:32:18.110Z,91.15
2022-11-10T22:35:04.343Z,80.75
2022-11-10T22:37:49.992Z,84.65
2022-11-10T22:40:54.776Z,79.28
2022-11-10T22:43:59.048Z,76.15
2022-11-10T22:46:48.104Z,80.05
2022-11-10T22:49:33.743Z,70.35
2022-11-10T22:52:19.692Z,73.75
2022-11-10T22:55:05.785Z,72.25
2022-11-10T22:57:52.985Z,75.28
2022-11-10T23:00:38.740Z,72.18
2022-11-10T23:03:25.028Z,76.30
2022-11-10T23:06:11.279Z,83.90
2022-11-10T23:08:58.372Z,77.95
2022-11-10T23:11:43.997Z,82.05
2022-11-10T23:14:29.923Z,83.85
2022-11-10T23:17:15.727Z,75.40
2022-11-10T23:20:01.609Z,82.82
2022-11-10T23:22:47.698Z,81.05
2022-11-10T23:25:33.307Z,73.80
2022-11-10T23:28:19.275Z,67.93
2022-11-10T23:31:11.279Z,70.70
2022-11-10T23:33:58.943Z,74.65
2022-11-10T23:36:44.833Z,69.40
2022-11-10T23:39:30.792Z,71.90
2022-11-10T23:42:16.588Z,64.82
2022-11-10T23:45:02.650Z,69.60
2022-11-10T23:47:48.741Z,72.53
2022-11-10T23:50:34.692Z,72.97
2022-11-10T23:53:23.564Z,67.03
2022-11-10T23:56:13.267Z,70.05
2022-11-10T23:58:59.090Z,61.67
